Time;durP1;ratioP1;P1;durP2;ratioP2;P2;SDS_P1;SDS_P2;PMS_P1;PMS_P2;Temp;Humidity;BMP_temperature;BMP_pressure;BME280_temperature;BME280_humidity;BME280_pressure;Samples;Min_cycle;Max_cycle;Signal;HPM_P1;HPM_P2
2022/06/15 00:03:32;;;;;;;2.92;1.55;;;;;;;18.61;42.83;99812.47;12198974;19;20098;-80
2022/06/15 00:07:34;;;;;;;5.25;1.88;;;;;;;18.61;42.44;99811.63;12202467;19;20010;-79
2022/06/15 00:11:42;;;;;;;6.15;2.70;;;;;;;18.60;41.91;99807.19;12182489;19;20014;-79
2022/06/15 00:15:46;;;;;;;4.93;1.58;;;;;;;18.62;42.22;99804.91;12207643;19;20006;-80
2022/06/15 00:19:47;;;;;;;3.28;1.60;;;;;;;18.55;42.84;99810.06;12253604;19;20031;-80
2022/06/15 00:23:50;;;;;;;3.58;1.80;;;;;;;18.48;43.14;99812.41;12184127;19;20151;-80
2022/06/15 00:27:52;;;;;;;2.67;1.67;;;;;;;18.40;43.24;99811.94;12197929;19;20026;-80
2022/06/15 00:31:53;;;;;;;5.20;1.50;;;;;;;18.35;43.08;99812.03;12208318;19;20472;-80
2022/06/15 00:36:00;;;;;;;3.13;1.55;;;;;;;18.21;44.03;99809.16;12177811;19;20126;-80
2022/06/15 00:40:05;;;;;;;6.25;2.10;;;;;;;18.04;44.59;99820.00;12198166;19;20125;-80
2022/06/15 00:44:19;;;;;;;3.83;2.00;;;;;;;17.90;44.98;99813.50;12207161;19;20086;-80
2022/06/15 00:48:21;;;;;;;3.60;1.85;;;;;;;17.75;45.12;99812.50;12188877;19;20042;-80
2022/06/15 00:52:34;;;;;;;3.15;1.90;;;;;;;17.61;46.02;99814.38;12200618;19;20346;-80
2022/06/15 00:56:38;;;;;;;5.65;1.88;;;;;;;17.44;47.11;99806.47;12184295;19;20014;-79
2022/06/15 01:00:40;;;;;;;2.83;2.05;;;;;;;17.27;47.20;99798.56;12197266;19;20406;-80
2022/06/15 01:04:56;;;;;;;4.95;2.58;;;;;;;17.11;47.37;99797.09;12195518;19;20018;-80
2022/06/15 01:09:18;;;;;;;7.32;2.10;;;;;;;16.94;48.37;99802.25;12182680;19;20047;-80
2022/06/15 01:13:32;;;;;;;4.10;2.10;;;;;;;16.79;48.79;99801.28;12195523;19;20002;-80
2022/06/15 01:17:52;;;;;;;;;;;;;;;16.70;49.13;99794.63;12173062;19;20760;-79
2022/06/15 01:22:18;;;;;;;3.78;1.88;;;;;;;16.59;49.83;99795.84;12201063;19;19926;-80
2022/06/15 01:26:45;;;;;;;3.50;2.03;;;;;;;16.47;50.80;99789.81;12176051;19;20477;-81
2022/06/15 01:30:52;;;;;;;3.72;1.70;;;;;;;16.33;50.76;99786.84;12209220;19;20433;-80
2022/06/15 01:35:06;;;;;;;4.88;2.08;;;;;;;16.23;51.26;99790.53;12194876;19;20007;-80
2022/06/15 01:39:40;;;;;;;3.97;2.15;;;;;;;16.08;52.62;99797.00;12186771;19;20046;-80
2022/06/15 01:43:46;;;;;;;;;;;;;;;15.99;51.99;99804.28;12204630;19;20011;-80
2022/06/15 01:47:51;;;;;;;3.85;2.10;;;;;;;15.88;52.47;99803.53;12182835;19;19918;-80
2022/06/15 01:51:58;;;;;;;4.75;2.30;;;;;;;15.80;53.18;99800.50;12204989;19;20018;-80
2022/06/15 01:56:11;;;;;;;5.72;1.85;;;;;;;15.66;53.72;99795.50;12195957;19;20007;-80
2022/06/15 02:00:17;;;;;;;3.83;2.25;;;;;;;15.53;54.49;99786.94;12186007;19;20027;-80
2022/06/15 02:04:36;;;;;;;3.60;1.83;;;;;;;15.42;55.72;99794.50;12195317;19;20018;-80
2022/06/15 02:08:57;;;;;;;5.63;1.98;;;;;;;15.36;54.76;99796.47;12170458;19;20362;-80
2022/06/15 02:13:25;;;;;;;3.97;2.00;;;;;;;15.24;55.58;99801.50;12197319;19;20043;-80
2022/06/15 02:17:33;;;;;;;2.90;2.05;;;;;;;15.16;55.37;99796.50;12183473;19;20014;-79
2022/06/15 02:21:39;;;;;;;3.92;1.90;;;;;;;15.11;55.81;99793.72;12201955;19;20007;-80
2022/06/15 02:25:44;;;;;;;2.80;2.00;;;;;;;15.03;56.30;99803.47;12197336;19;20019;-80
2022/06/15 02:29:49;;;;;;;4.00;2.40;;;;;;;14.96;57.28;99803.75;12184210;19;20046;-80
2022/06/15 02:33:54;;;;;;;4.47;2.08;;;;;;;14.92;57.10;99791.53;12194580;19;20002;-80
2022/06/15 02:37:58;;;;;;;3.65;2.25;;;;;;;14.87;57.88;99790.72;12200802;19;20377;-80
2022/06/15 02:42:22;;;;;;;6.03;2.90;;;;;;;14.87;57.63;99793.47;12184947;19;20078;-79
2022/06/15 02:46:32;;;;;;;4.65;2.33;;;;;;;14.90;57.80;99782.69;12209020;19;20019;-79
2022/06/15 02:51:30;;;;;;;4.50;2.50;;;;;;;15.03;57.46;99786.81;12195472;19;20017;-80
2022/06/15 02:55:37;;;;;;;4.25;2.75;;;;;;;15.14;56.83;99782.06;12211981;19;20369;-80
2022/06/15 02:59:45;;;;;;;3.75;2.67;;;;;;;15.21;56.24;99782.63;12193166;19;20030;-80
2022/06/15 03:03:48;;;;;;;3.00;2.40;;;;;;;15.27;55.99;99787.88;12206076;19;20035;-81
2022/06/15 03:07:55;;;;;;;4.80;2.17;;;;;;;15.31;56.17;99782.59;12211355;19;20025;-80
2022/06/15 03:11:58;;;;;;;5.40;2.65;;;;;;;15.36;56.19;99779.78;12186874;19;20006;-81
2022/06/15 03:16:04;;;;;;;7.68;2.83;;;;;;;15.39;56.15;99784.78;12202677;19;20017;-80
2022/06/15 03:20:09;;;;;;;4.63;2.53;;;;;;;15.36;56.25;99787.31;12215061;19;20065;-80
2022/06/15 03:24:10;;;;;;;3.53;2.40;;;;;;;15.32;56.73;99787.03;12193839;19;20723;-79
2022/06/15 03:28:14;;;;;;;5.03;2.55;;;;;;;15.30;57.04;99782.88;12205772;19;20097;-80
2022/06/15 03:32:17;;;;;;;;;;;;;;;15.20;57.53;99787.34;12213634;19;20030;-80
2022/06/15 03:36:34;;;;;;;5.88;2.85;;;;;;;15.13;57.36;99777.63;12185805;19;20464;-80
2022/06/15 03:40:39;;;;;;;4.50;2.60;;;;;;;15.05;57.95;99784.59;12225152;19;20026;-80
2022/06/15 03:44:42;;;;;;;4.63;3.08;;;;;;;14.97;58.30;99785.16;12216881;19;20604;-80
2022/06/15 03:48:45;;;;;;;6.55;2.45;;;;;;;14.92;59.40;99786.00;12208306;19;20030;-81
2022/06/15 03:52:49;;;;;;;4.30;3.03;;;;;;;14.87;59.25;99782.38;12206484;19;20015;-80
2022/06/15 03:56:56;;;;;;;3.67;2.70;;;;;;;14.85;59.53;99785.44;12184777;19;20010;-79
2022/06/15 04:01:03;;;;;;;4.60;2.63;;;;;;;14.82;60.26;99777.69;12194846;19;20010;-80
2022/06/15 04:05:06;;;;;;;;;;;;;;;14.88;59.95;99784.06;12206047;19;20018;-79
2022/06/15 04:09:09;;;;;;;5.57;2.43;;;;;;;15.01;59.27;99778.75;12177467;19;19939;-80
2022/06/15 04:13:15;;;;;;;4.43;2.38;;;;;;;15.22;58.57;99770.41;12199297;19;20106;-80
2022/06/15 04:17:18;;;;;;;3.95;2.80;;;;;;;15.39;58.10;99772.84;12199421;19;20425;-80
2022/06/15 04:21:30;;;;;;;3.13;1.90;;;;;;;15.63;57.17;99768.31;12177664;19;20485;-81
2022/06/15 04:25:36;;;;;;;3.53;2.08;;;;;;;15.78;57.11;99773.00;12211270;19;20018;-81
2022/06/15 04:29:38;;;;;;;5.90;2.45;;;;;;;15.96;56.42;99774.28;12187705;19;20766;-79
2022/06/15 04:33:41;;;;;;;5.50;2.33;;;;;;;16.12;55.78;99778.66;12204346;19;20677;-81
2022/06/15 04:37:43;;;;;;;;;;;;;;;16.26;55.24;99770.50;12196745;19;20014;-79
2022/06/15 04:41:56;;;;;;;4.40;1.93;;;;;;;16.45;54.21;99779.00;12179147;19;19907;-80
2022/06/15 04:45:58;;;;;;;3.95;2.42;;;;;;;16.66;53.86;99779.66;12205740;19;20014;-79
2022/06/15 04:50:01;;;;;;;7.18;2.63;;;;;;;16.79;53.89;99779.00;12203990;19;20066;-79
2022/06/15 04:54:10;;;;;;;3.58;2.08;;;;;;;16.84;54.29;99781.75;12183380;19;20499;-79
2022/06/15 04:58:17;;;;;;;6.95;3.08;;;;;;;16.85;54.42;99786.19;12195570;19;20501;-79
2022/06/15 05:02:22;;;;;;;4.70;2.40;;;;;;;16.91;54.17;99786.97;12193739;19;20359;-78
2022/06/15 05:06:27;;;;;;;7.03;2.63;;;;;;;16.96;54.21;99786.09;12169230;19;20003;-79
2022/06/15 05:10:31;;;;;;;4.03;2.35;;;;;;;17.01;54.34;99784.09;12195487;19;20077;-80
2022/06/15 05:14:33;;;;;;;3.85;2.17;;;;;;;17.04;54.42;99785.44;12173818;19;20039;-79
2022/06/15 05:18:40;;;;;;;7.10;2.22;;;;;;;17.13;54.66;99789.25;12204257;19;20006;-80
2022/06/15 05:22:51;;;;;;;4.07;2.50;;;;;;;17.21;55.07;99793.38;12206298;19;20011;-80
2022/06/15 05:26:56;;;;;;;4.25;2.55;;;;;;;17.25;55.20;99791.63;12171659;19;20003;-79
2022/06/15 05:31:27;;;;;;;6.70;2.72;;;;;;;17.35;55.57;99790.72;12195476;19;20011;-79
2022/06/15 05:35:31;;;;;;;5.25;2.65;;;;;;;17.45;55.18;99799.78;12166319;19;20003;-80
2022/06/15 05:39:33;;;;;;;6.63;2.77;;;;;;;17.59;55.29;99787.94;12192491;19;20014;-80
2022/06/15 05:43:40;;;;;;;7.25;2.95;;;;;;;17.71;54.86;99789.16;12195489;19;20033;-80
2022/06/15 05:47:42;;;;;;;5.18;3.22;;;;;;;17.87;54.61;99789.00;12182206;19;20013;-78
2022/06/15 05:52:03;;;;;;;6.32;2.78;;;;;;;18.02;54.23;99797.16;12207139;19;20021;-79
2022/06/15 05:56:07;;;;;;;6.78;3.17;;;;;;;18.21;54.05;99792.44;12191957;19;20015;-80
2022/06/15 06:00:12;;;;;;;4.50;3.13;;;;;;;18.42;53.59;99794.91;12164968;19;20011;-79
2022/06/15 06:04:15;;;;;;;5.20;3.15;;;;;;;18.62;53.42;99794.59;12191986;19;20047;-80
2022/06/15 06:08:17;;;;;;;5.93;2.83;;;;;;;18.92;53.00;99792.47;12197129;19;20011;-80
2022/06/15 06:12:19;;;;;;;8.55;4.45;;;;;;;19.18;52.48;99795.59;12180433;19;20384;-79
2022/06/15 06:16:21;;;;;;;6.57;3.78;;;;;;;19.38;52.67;99800.00;12200616;19;19998;-78
2022/06/15 06:20:23;;;;;;;5.77;3.27;;;;;;;19.60;52.49;99804.84;12207605;19;20122;-79
2022/06/15 06:24:25;;;;;;;5.85;2.67;;;;;;;19.77;51.85;99807.06;12191559;19;20511;-80
2022/06/15 06:28:34;;;;;;;8.32;3.08;;;;;;;20.04;51.36;99800.63;12208750;19;20500;-79
2022/06/15 06:32:36;;;;;;;6.07;3.20;;;;;;;20.25;51.07;99801.00;12189717;19;20086;-79
2022/06/15 06:36:42;;;;;;;5.72;2.70;;;;;;;20.47;50.73;99803.84;12198460;19;20026;-80
2022/06/15 06:40:44;;;;;;;4.97;2.75;;;;;;;20.63;50.46;99800.72;12183036;19;20496;-79
2022/06/15 06:44:46;;;;;;;5.05;2.72;;;;;;;20.82;50.20;99818.16;12188810;19;20517;-79
2022/06/15 06:48:48;;;;;;;5.78;3.17;;;;;;;21.03;49.83;99817.63;12207577;19;20018;-79
2022/06/15 06:52:51;;;;;;;3.75;2.70;;;;;;;21.23;48.78;99814.28;12218327;19;20516;-79
2022/06/15 06:56:53;;;;;;;7.47;3.33;;;;;;;21.47;48.28;99819.56;12187596;19;20010;-79
2022/06/15 07:01:01;;;;;;;5.75;3.55;;;;;;;21.72;48.20;99817.22;12208666;19;20357;-79
2022/06/15 07:05:03;;;;;;;5.33;3.30;;;;;;;21.97;47.66;99819.25;12245366;19;20019;-80
2022/06/15 07:09:05;;;;;;;5.28;3.15;;;;;;;22.20;47.38;99825.63;12211470;19;20032;-82
2022/06/15 07:13:08;;;;;;;5.55;2.95;;;;;;;22.42;47.65;99827.47;12214587;19;20007;-80
2022/06/15 07:17:10;;;;;;;9.70;3.40;;;;;;;22.68;47.22;99835.91;12222152;19;20015;-79
2022/06/15 07:21:23;;;;;;;5.20;2.95;;;;;;;23.00;46.17;99830.16;12227156;19;20014;-80
2022/06/15 07:25:25;;;;;;;6.07;2.80;;;;;;;23.20;45.45;99835.91;12213420;19;20023;-80
2022/06/15 07:29:27;;;;;;;5.65;2.80;;;;;;;23.46;45.33;99829.38;12228909;19;20017;-80
2022/06/15 07:33:29;;;;;;;;;;;;;;;23.78;44.86;99836.41;12210181;19;20018;-79
2022/06/15 07:37:32;;;;;;;6.55;2.97;;;;;;;24.05;43.70;99831.47;12225662;19;20047;-80
2022/06/15 07:41:55;;;;;;;7.78;2.90;;;;;;;24.35;42.93;99837.91;12207466;19;20532;-80
2022/06/15 07:45:57;;;;;;;5.43;2.75;;;;;;;24.52;42.41;99829.38;12227051;19;20024;-79
2022/06/15 07:49:58;;;;;;;6.30;2.63;;;;;;;24.68;42.62;99834.38;12231035;19;20023;-80
2022/06/15 07:54:21;;;;;;;4.88;3.10;;;;;;;24.92;42.02;99836.50;12183973;19;20030;-80
2022/06/15 07:58:23;;;;;;;6.07;2.90;;;;;;;25.15;41.13;99822.88;12199576;19;20054;-80
2022/06/15 08:02:25;;;;;;;7.77;3.10;;;;;;;25.26;40.61;99834.56;12199154;19;20356;-80
2022/06/15 08:06:29;;;;;;;8.50;3.67;;;;;;;25.33;41.36;99831.97;12172575;19;20038;-80
2022/06/15 08:10:33;;;;;;;6.65;2.63;;;;;;;25.49;40.67;99829.28;12198432;19;20042;-80
2022/06/15 08:14:37;;;;;;;4.90;2.70;;;;;;;25.80;40.72;99831.59;12173295;19;20066;-81
2022/06/15 08:18:47;;;;;;;9.70;3.67;;;;;;;25.95;38.75;99836.56;12203263;19;20112;-80
2022/06/15 08:22:54;;;;;;;8.77;2.92;;;;;;;26.09;39.34;99827.75;12206683;19;20007;-81
2022/06/15 08:27:02;;;;;;;;;;;;;;;26.22;39.65;99823.72;12181591;19;20027;-79
2022/06/15 08:31:04;;;;;;;4.97;2.70;;;;;;;26.27;38.58;99817.84;12204933;19;19907;-79
2022/06/15 08:35:07;;;;;;;7.78;3.00;;;;;;;26.24;38.87;99815.72;12204847;19;20811;-82
2022/06/15 08:39:09;;;;;;;5.90;2.53;;;;;;;26.35;39.05;99808.41;12180479;19;20086;-81
2022/06/15 08:43:23;;;;;;;6.90;3.10;;;;;;;26.32;38.84;99817.56;12202476;19;20081;-81
2022/06/15 08:47:34;;;;;;;7.68;2.75;;;;;;;26.49;38.75;99818.50;12199174;19;20095;-81
2022/06/15 08:51:41;;;;;;;7.47;3.28;;;;;;;26.65;38.70;99821.41;12179748;19;20015;-82
2022/06/15 08:56:02;;;;;;;6.28;3.42;;;;;;;26.71;38.77;99822.81;12199984;19;20014;-82
2022/06/15 09:00:09;;;;;;;6.85;2.90;;;;;;;26.75;38.62;99816.09;12187436;19;20480;-83
2022/06/15 09:04:38;;;;;;;7.53;2.90;;;;;;;26.94;39.05;99825.91;12191038;19;20035;-81
2022/06/15 09:09:06;;;;;;;10.23;3.63;;;;;;;27.16;37.46;99816.91;12181304;19;20038;-82
2022/06/15 09:13:16;;;;;;;4.95;3.22;;;;;;;27.15;37.58;99814.41;12205094;19;20006;-81
2022/06/15 09:17:22;;;;;;;;;;;;;;;27.25;37.82;99817.56;12202803;19;20011;-81
2022/06/15 09:21:31;;;;;;;9.48;3.33;;;;;;;27.49;36.96;99812.94;12175675;19;20361;-80
2022/06/15 09:25:41;;;;;;;9.40;3.58;;;;;;;27.65;37.27;99813.75;12199870;19;20102;-82
2022/06/15 09:29:47;;;;;;;6.53;3.22;;;;;;;27.87;36.38;99822.81;12189367;19;20027;-81
2022/06/15 09:33:59;;;;;;;6.93;3.47;;;;;;;27.92;35.75;99816.88;12204747;19;20048;-83
2022/06/15 09:38:13;;;;;;;8.57;3.45;;;;;;;27.88;35.28;99813.16;12210010;19;20487;-82
2022/06/15 09:42:45;;;;;;;6.78;3.60;;;;;;;27.85;36.16;99809.03;12181495;19;20015;-83
2022/06/15 09:47:09;;;;;;;6.78;3.30;;;;;;;28.02;36.00;99812.66;12208319;19;20094;-82
2022/06/15 09:51:16;;;;;;;7.70;3.70;;;;;;;28.11;35.08;99810.47;12200847;19;20006;-83
2022/06/15 09:55:31;;;;;;;5.95;3.33;;;;;;;28.10;35.70;99814.50;12214528;19;20011;-83
2022/06/15 09:59:33;;;;;;;6.57;3.30;;;;;;;28.51;34.91;99810.22;12192940;19;20006;-83
2022/06/15 10:03:39;;;;;;;5.57;3.30;;;;;;;28.78;34.71;99805.53;12218177;19;20007;-84
2022/06/15 10:07:43;;;;;;;6.78;3.50;;;;;;;28.70;34.32;99803.72;12205520;19;20027;-83
2022/06/15 10:11:50;;;;;;;7.53;3.50;;;;;;;28.79;34.34;99795.00;12195013;19;20467;-83
2022/06/15 10:16:01;;;;;;;4.97;3.42;;;;;;;29.07;34.10;99806.16;12209275;19;20042;-82
2022/06/15 10:20:04;;;;;;;8.15;3.05;;;;;;;29.60;33.88;99800.66;12216931;19;20047;-82
2022/06/15 10:24:23;;;;;;;6.47;3.30;;;;;;;29.93;33.16;99796.38;12197631;19;20010;-84
2022/06/15 10:28:34;;;;;;;5.38;3.38;;;;;;;30.06;33.14;99800.63;12216404;19;20022;-83
2022/06/15 10:32:58;;;;;;;6.28;3.45;;;;;;;30.24;32.89;99800.94;12237769;19;20007;-84
2022/06/15 10:37:06;;;;;;;9.45;3.80;;;;;;;30.32;32.58;99791.31;12200240;19;20018;-83
2022/06/15 10:45:42;;;;;;;6.22;3.45;;;;;;;30.83;31.53;99784.31;12182412;19;20525;-84
2022/06/15 10:49:49;;;;;;;5.55;3.38;;;;;;;31.08;30.29;99782.59;12205882;19;20002;-83
2022/06/15 10:54:15;;;;;;;7.93;3.10;;;;;;;31.31;29.79;99781.59;12180762;19;20032;-85
2022/06/15 11:02:45;;;;;;;6.10;2.95;;;;;;;31.47;28.44;99784.19;12185090;19;20014;-83
2022/06/15 11:07:10;;;;;;;6.07;3.28;;;;;;;31.80;27.54;99780.44;12205950;19;20010;-84
2022/06/15 11:11:26;;;;;;;5.28;2.80;;;;;;;31.84;26.98;99772.75;12211766;19;20034;-84
2022/06/15 11:20:03;;;;;;;5.77;2.53;;;;;;;32.20;25.27;99762.44;12212707;19;20066;-84
2022/06/15 11:24:21;;;;;;;;;;;;;;;32.38;25.70;99761.72;12190781;19;20354;-83
2022/06/15 11:28:29;;;;;;;5.53;3.10;;;;;;;32.58;26.16;99757.38;12203862;19;19915;-85
2022/06/15 11:32:37;;;;;;;8.75;3.40;;;;;;;32.65;25.66;99757.41;12213480;19;20034;-84
2022/06/15 11:37:05;;;;;;;4.05;2.72;;;;;;;32.78;25.81;99746.47;12210133;19;20028;-84
2022/06/15 11:41:47;;;;;;;6.40;3.15;;;;;;;32.75;25.87;99743.56;12210784;19;20347;-84
2022/06/15 11:46:02;;;;;;;5.38;2.53;;;;;;;32.63;25.47;99737.03;12182526;19;20358;-85
2022/06/15 11:50:43;;;;;;;5.32;3.60;;;;;;;32.76;25.53;99745.22;12212999;19;20003;-84
2022/06/15 11:54:58;;;;;;;5.68;3.30;;;;;;;32.70;26.18;99739.09;12183129;19;20010;-84
2022/06/15 11:59:34;;;;;;;6.25;2.80;;;;;;;32.89;25.67;99740.78;12207786;19;20014;-84
2022/06/15 12:04:04;;;;;;;4.55;3.05;;;;;;;33.15;25.24;99721.72;12187723;19;20019;-83
2022/06/15 12:08:22;;;;;;;4.85;3.55;;;;;;;33.28;24.61;99726.59;12218547;19;20002;-85
2022/06/15 12:12:40;;;;;;;7.60;3.17;;;;;;;32.82;25.79;99723.66;12180032;19;20011;-85
2022/06/15 12:16:50;;;;;;;5.50;2.95;;;;;;;33.10;25.58;99720.06;12207307;19;20003;-86
2022/06/15 12:21:44;;;;;;;7.90;3.37;;;;;;;34.13;24.52;99721.31;12209487;19;20500;-84
2022/06/15 12:26:17;;;;;;;5.93;3.38;;;;;;;35.05;23.19;99727.94;12103771;19;2004555;-83
2022/06/15 12:30:52;;;;;;;5.68;3.63;;;;;;;36.47;22.11;99714.38;12176947;19;20072;-83
2022/06/15 12:35:03;;;;;;;6.07;4.05;;;;;;;37.16;21.39;99714.31;12204062;19;20706;-84
2022/06/15 12:39:30;;;;;;;;;;;;;;;37.58;20.99;99706.28;12183209;19;20132;-85
2022/06/15 12:43:40;;;;;;;7.47;4.38;;;;;;;37.73;20.39;99712.59;12202477;19;19914;-84
2022/06/15 12:47:49;;;;;;;5.15;3.90;;;;;;;38.20;19.69;99696.09;12179417;19;20010;-84
2022/06/15 12:51:58;;;;;;;4.57;3.20;;;;;;;39.33;19.40;99696.97;12211290;19;20015;-85
2022/06/15 12:56:12;;;;;;;4.25;3.45;;;;;;;40.22;19.03;99696.72;12202000;19;20006;-85
2022/06/15 13:00:38;;;;;;;4.55;3.58;;;;;;;40.18;17.45;99684.44;12181491;19;20459;-83
2022/06/15 13:04:55;;;;;;;3.95;3.55;;;;;;;40.71;17.51;99684.97;12203674;19;20085;-83
2022/06/15 13:09:34;;;;;;;5.28;3.35;;;;;;;41.17;17.46;99679.81;12183214;19;20021;-83
2022/06/15 13:13:51;;;;;;;5.40;3.92;;;;;;;41.53;17.23;99684.44;12196319;19;20002;-83
2022/06/15 13:18:09;;;;;;;6.57;3.20;;;;;;;42.40;16.13;99682.19;12188663;19;20015;-83
2022/06/15 13:22:15;;;;;;;6.53;3.70;;;;;;;42.33;15.20;99669.59;12211654;19;20368;-83
2022/06/15 13:26:46;;;;;;;4.88;3.28;;;;;;;42.88;15.85;99671.25;12204218;19;20022;-82
2022/06/15 13:30:47;;;;;;;4.50;3.22;;;;;;;43.08;15.56;99676.66;12186159;19;20383;-82
2022/06/15 13:34:49;;;;;;;3.30;2.92;;;;;;;44.00;14.99;99671.09;12209660;19;20066;-83
2022/06/15 13:38:52;;;;;;;4.15;2.70;;;;;;;44.13;15.00;99671.75;12180338;19;20019;-83
2022/06/15 13:43:20;;;;;;;4.97;3.47;;;;;;;44.23;14.33;99675.44;12199848;19;20003;-84
2022/06/15 13:47:53;;;;;;;4.43;2.90;;;;;;;44.81;13.92;99677.31;12178982;19;20007;-84
2022/06/15 13:52:00;;;;;;;5.53;3.10;;;;;;;44.89;13.80;99669.88;12207379;19;20347;-83
2022/06/15 13:56:40;;;;;;;4.72;3.20;;;;;;;45.43;13.63;99673.03;12196505;19;21856;-83
2022/06/15 14:01:09;;;;;;;3.80;2.78;;;;;;;45.39;13.13;99666.56;12182344;19;20011;-83
2022/06/15 14:05:26;;;;;;;5.05;2.80;;;;;;;46.08;12.75;99653.84;12214625;19;20026;-82
2022/06/15 14:09:40;;;;;;;6.50;2.85;;;;;;;46.39;11.90;99664.25;12193208;19;20126;-83
2022/06/15 14:14:12;;;;;;;2.80;2.28;;;;;;;46.29;12.04;99656.88;12200087;19;20002;-84
2022/06/15 14:18:51;;;;;;;4.75;2.60;;;;;;;46.49;11.84;99659.09;12178761;19;20010;-83
2022/06/15 14:22:57;;;;;;;4.13;2.50;;;;;;;46.75;11.65;99653.50;12209977;19;20090;-83
2022/06/15 14:27:30;;;;;;;4.22;2.35;;;;;;;47.28;11.03;99648.81;12176054;19;20021;-84
2022/06/15 14:31:35;;;;;;;5.28;3.00;;;;;;;47.03;11.28;99651.06;12200678;19;20014;-83
2022/06/15 14:35:37;;;;;;;4.88;2.47;;;;;;;46.67;11.47;99652.28;12192165;19;20034;-84
2022/06/15 14:39:52;;;;;;;3.65;2.38;;;;;;;47.43;10.95;99641.63;12215236;19;20030;-83
2022/06/15 14:43:59;;;;;;;3.50;2.33;;;;;;;48.26;10.99;99637.38;12211592;19;20006;-84
2022/06/15 14:48:05;;;;;;;7.03;2.50;;;;;;;48.30;10.69;99640.84;12191778;19;20010;-83
2022/06/15 14:52:36;;;;;;;3.88;2.45;;;;;;;48.21;10.61;99635.19;12213884;19;20007;-84
2022/06/15 14:56:47;;;;;;;3.47;2.28;;;;;;;47.62;10.42;99635.50;12183771;19;20023;-85
2022/06/15 15:01:03;;;;;;;4.22;1.85;;;;;;;47.58;10.50;99638.63;12212728;19;20014;-85
2022/06/15 15:05:06;;;;;;;2.80;2.08;;;;;;;44.82;11.07;99628.72;12211472;19;20006;-83
2022/06/15 15:09:11;;;;;;;4.88;2.20;;;;;;;42.42;12.78;99641.97;12190169;19;20451;-83
2022/06/15 15:13:13;;;;;;;4.47;2.63;;;;;;;41.62;13.47;99629.56;12214353;19;20007;-84
2022/06/15 15:17:15;;;;;;;5.72;2.40;;;;;;;42.09;13.02;99622.09;12209886;19;20010;-82
2022/06/15 15:21:30;;;;;;;3.53;2.10;;;;;;;42.88;12.55;99640.16;12196171;19;20273;-84
2022/06/15 15:26:44;;;;;;;2.75;2.10;;;;;;;41.01;13.40;99630.78;12207341;19;20009;-83
2022/06/15 15:35:31;;;;;;;4.15;2.30;;;;;;;37.44;16.25;99626.81;12210486;19;20549;-84
2022/06/15 15:39:59;;;;;;;4.85;2.65;;;;;;;36.18;17.26;99622.13;12186791;19;20003;-82
2022/06/15 15:44:18;;;;;;;3.97;2.65;;;;;;;35.31;17.48;99620.53;12212629;19;20014;-83
2022/06/15 15:48:24;;;;;;;3.45;2.80;;;;;;;34.62;18.31;99622.25;12196754;19;20378;-82
2022/06/15 15:52:26;;;;;;;7.85;3.50;;;;;;;34.00;19.10;99618.81;12210791;19;20055;-83
2022/06/15 15:56:28;;;;;;;3.83;2.95;;;;;;;33.62;19.48;99606.28;12211879;19;20017;-83
2022/06/15 16:00:32;;;;;;;4.75;2.75;;;;;;;33.26;19.71;99612.00;12180515;19;20038;-83
2022/06/15 16:04:35;;;;;;;3.70;2.17;;;;;;;33.08;19.62;99594.88;12199202;19;20352;-84
2022/06/15 16:08:37;;;;;;;4.78;2.50;;;;;;;33.03;20.07;99603.84;12183696;19;20641;-84
2022/06/15 16:12:41;;;;;;;;;;;;;;;32.90;20.88;99605.44;12213414;19;20034;-83
2022/06/15 16:16:43;;;;;;;4.50;2.35;;;;;;;32.82;20.55;99603.81;12208731;19;19915;-83
2022/06/15 16:20:48;;;;;;;2.90;2.42;;;;;;;32.79;20.54;99593.19;12192667;19;20034;-83
2022/06/15 16:24:50;;;;;;;4.72;2.53;;;;;;;32.58;20.96;99589.09;12207698;19;20007;-82
2022/06/15 16:28:53;;;;;;;4.75;2.00;;;;;;;32.28;20.94;99597.13;12220583;19;20011;-82
2022/06/15 16:32:55;;;;;;;3.25;2.30;;;;;;;32.03;20.97;99594.97;12203190;19;20373;-82
2022/06/15 16:36:59;;;;;;;6.22;2.58;;;;;;;31.88;21.17;99598.97;12234816;19;20033;-83
2022/06/15 16:41:09;;;;;;;3.40;2.17;;;;;;;31.72;21.03;99590.75;12245758;19;20010;-82
2022/06/15 16:45:13;;;;;;;5.13;2.58;;;;;;;31.61;21.31;99595.56;12207499;19;20014;-82
2022/06/15 16:49:14;;;;;;;7.97;2.13;;;;;;;31.49;21.61;99588.16;12235697;19;20006;-82
2022/06/15 16:53:16;;;;;;;5.68;2.28;;;;;;;31.47;21.65;99594.25;12222564;19;20021;-81
2022/06/15 16:57:20;;;;;;;5.10;2.03;;;;;;;31.44;21.69;99591.38;12200825;19;20007;-82
2022/06/15 17:01:22;;;;;;;3.97;2.17;;;;;;;31.33;21.85;99603.47;12216851;19;20018;-82
2022/06/15 17:05:25;;;;;;;4.47;1.95;;;;;;;31.31;21.71;99602.25;12219435;19;20010;-82
2022/06/15 17:09:42;;;;;;;3.33;2.00;;;;;;;31.29;21.68;99591.25;12194207;19;20013;-83
2022/06/15 17:13:45;;;;;;;3.53;1.90;;;;;;;31.18;21.13;99598.91;12212313;19;20910;-82
2022/06/15 17:17:47;;;;;;;4.80;2.10;;;;;;;31.10;21.09;99602.88;12193689;19;20022;-82
2022/06/15 17:21:50;;;;;;;2.25;1.40;;;;;;;31.02;20.70;99610.53;12211854;19;20476;-81
2022/06/15 17:26:16;;;;;;;4.28;2.03;;;;;;;31.02;20.41;99606.88;12212489;19;20031;-83
2022/06/15 17:30:18;;;;;;;2.47;1.55;;;;;;;30.93;20.32;99609.25;12190207;19;20014;-82
2022/06/15 17:34:21;;;;;;;2.03;1.60;;;;;;;31.01;20.57;99603.22;12214569;19;20437;-82
2022/06/15 17:38:22;;;;;;;3.25;1.60;;;;;;;31.07;20.49;99598.00;12219354;19;20010;-82
2022/06/15 17:42:25;;;;;;;3.42;1.70;;;;;;;30.98;20.42;99601.16;12206272;19;20014;-83
2022/06/15 17:46:30;;;;;;;4.07;1.40;;;;;;;30.90;20.06;99592.97;12233151;19;19999;-82
2022/06/15 17:50:32;;;;;;;4.60;1.90;;;;;;;30.78;20.04;99585.50;12243609;19;20100;-83
2022/06/15 17:54:34;;;;;;;2.95;1.98;;;;;;;30.63;20.30;99593.06;12215931;19;20014;-82
2022/06/15 17:58:38;;;;;;;2.95;1.75;;;;;;;30.52;20.84;99598.66;12232570;19;20732;-83
2022/06/15 18:02:42;;;;;;;4.30;1.70;;;;;;;30.39;20.78;99598.09;12191262;19;20050;-82
2022/06/15 18:06:43;;;;;;;3.72;1.55;;;;;;;30.27;21.43;99594.72;12220623;19;20014;-83
2022/06/15 18:10:46;;;;;;;5.18;1.80;;;;;;;30.09;22.63;99598.13;12230619;19;20050;-83
2022/06/15 18:14:49;;;;;;;3.22;1.52;;;;;;;29.92;23.12;99595.88;12214219;19;20712;-83
2022/06/15 18:18:55;;;;;;;3.58;1.58;;;;;;;29.74;23.50;99602.13;12234113;19;20074;-83
2022/06/15 18:22:57;;;;;;;3.90;1.50;;;;;;;29.50;23.67;99594.84;12240048;19;20049;-82
2022/06/15 18:26:59;;;;;;;1.55;1.30;;;;;;;29.28;24.01;99596.56;12211059;19;20030;-83
2022/06/15 18:31:00;;;;;;;2.50;1.73;;;;;;;29.07;24.54;99602.72;12225640;19;20492;-82
2022/06/15 18:35:03;;;;;;;;;;;;;;;28.82;24.32;99601.41;12228360;19;20029;-82
2022/06/15 18:39:06;;;;;;;2.03;1.35;;;;;;;28.59;25.12;99599.41;12210739;19;19914;-83
2022/06/15 18:47:35;;;;;;;2.15;1.40;;;;;;;28.02;26.81;99605.91;12231877;19;20002;-82
2022/06/15 18:51:36;;;;;;;4.70;1.38;;;;;;;27.72;27.61;99598.81;12211068;19;20018;-80
2022/06/15 18:55:38;;;;;;;2.30;1.30;;;;;;;27.48;28.37;99604.69;12220031;19;20010;-80
2022/06/15 18:59:43;;;;;;;3.47;1.67;;;;;;;27.26;29.02;99594.91;12202322;19;20031;-80
2022/06/15 19:03:45;;;;;;;3.80;1.80;;;;;;;27.00;30.06;99589.78;12216494;19;20010;-81
2022/06/15 19:07:52;;;;;;;2.65;1.27;;;;;;;26.73;30.66;99595.16;12216253;19;19999;-79
2022/06/15 19:11:53;;;;;;;3.30;1.52;;;;;;;26.45;31.12;99594.38;12199248;19;20014;-80
2022/06/15 19:15:55;;;;;;;2.20;1.40;;;;;;;26.18;31.59;99599.69;12210581;19;20082;-81
2022/06/15 19:19:57;;;;;;;5.30;1.52;;;;;;;25.94;31.91;99599.75;12211947;19;20467;-80
2022/06/15 19:24:04;;;;;;;2.58;1.65;;;;;;;25.69;31.96;99602.63;12195981;19;20014;-79
2022/06/15 19:28:05;;;;;;;4.18;1.42;;;;;;;25.48;32.03;99605.63;12216052;19;20066;-80
2022/06/15 19:32:08;;;;;;;3.20;1.47;;;;;;;25.26;31.84;99612.59;12216454;19;20448;-80
2022/06/15 19:36:11;;;;;;;3.38;1.67;;;;;;;25.10;31.95;99608.78;12197497;19;20086;-81
2022/06/15 19:40:15;;;;;;;6.20;1.80;;;;;;;24.95;32.12;99615.94;12212594;19;20010;-82
2022/06/15 19:44:16;;;;;;;2.72;1.70;;;;;;;24.81;31.96;99615.44;12213428;19;20015;-80
2022/06/15 19:48:19;;;;;;;2.17;1.67;;;;;;;24.66;32.47;99622.59;12188830;19;20007;-79